Time;durP1;ratioP1;P1;durP2;ratioP2;P2;SDS_P1;SDS_P2;PMS_P1;PMS_P2;Temp;Humidity;BMP_temperature;BMP_pressure;BME280_temperature;BME280_humidity;BME280_pressure;Samples;Min_cycle;Max_cycle;Signal;HPM_P1;HPM_P2
2023/09/28 13:28:25;;;;;;;9.20;5.70;;;;;;;35.10;24.86;101499.16;104363;1284;599342;-77
2023/09/28 13:30:57;;;;;;;7.00;5.50;;;;;;;34.58;24.71;101498.66;107050;1251;61317;-75
2023/09/28 13:33:26;;;;;;;8.30;5.30;;;;;;;34.61;24.41;101495.86;107065;1251;59122;-76
2023/09/28 13:35:55;;;;;;;12.90;5.90;;;;;;;34.96;24.39;101497.92;107258;1247;62325;-80
2023/09/28 13:38:24;;;;;;;8.00;5.50;;;;;;;34.81;24.84;101498.61;107228;1247;62659;-79
2023/09/28 13:40:53;;;;;;;7.50;5.30;;;;;;;34.98;24.54;101498.16;106872;1254;297996;-79
2023/09/28 18:52:42;;;;;;;13.80;8.10;;;;;;;17.37;98.96;101580.77;104671;1284;601256;-74
2023/09/28 18:55:13;;;;;;;17.20;8.00;;;;;;;17.32;98.55;101578.80;107571;1249;58901;-73
2023/09/28 18:57:42;;;;;;;15.90;8.50;;;;;;;17.24;98.91;101584.58;107373;1247;61054;-73
2023/09/28 19:00:13;;;;;;;18.60;9.30;;;;;;;17.15;99.33;101586.00;107182;1255;60849;-73
2023/09/28 19:02:43;;;;;;;16.70;8.70;;;;;;;17.14;99.84;101588.25;107179;1248;60810;-72
2023/09/28 19:05:13;;;;;;;16.40;7.70;;;;;;;17.10;99.90;101586.27;106605;1251;350901;-73
2023/09/28 19:07:42;;;;;;;16.60;8.20;;;;;;;17.02;100.00;101591.42;107177;1258;73632;-73
2023/09/28 19:10:11;;;;;;;16.80;9.30;;;;;;;16.95;100.00;101588.48;107287;1248;58986;-72
2023/09/28 19:12:40;;;;;;;18.20;8.80;;;;;;;16.88;100.00;101587.08;107153;1248;57745;-74
2023/09/28 19:15:11;;;;;;;22.10;10.00;;;;;;;16.83;100.00;101584.54;107135;1247;61141;-73
2023/09/28 19:17:39;;;;;;;18.80;8.70;;;;;;;16.80;100.00;101588.52;107250;1242;72124;-75
2023/09/28 19:20:09;;;;;;;21.60;8.20;;;;;;;16.75;100.00;101585.95;107216;1244;70060;-75
2023/09/28 19:22:38;;;;;;;18.10;8.60;;;;;;;16.69;100.00;101585.91;107263;1241;62891;-74
2023/09/28 19:25:07;;;;;;;17.60;8.10;;;;;;;16.64;100.00;101594.52;107256;1241;57922;-75
2023/09/28 19:27:36;;;;;;;18.00;8.60;;;;;;;16.60;100.00;101596.11;107272;1244;59070;-75
2023/09/28 19:30:11;;;;;;;15.20;8.90;;;;;;;16.55;100.00;101596.21;107294;1244;62978;-73
2023/09/28 19:32:40;;;;;;;19.40;8.60;;;;;;;16.48;100.00;101601.21;107500;1241;72094;-75
2023/09/28 19:35:09;;;;;;;20.70;8.40;;;;;;;16.49;100.00;101601.65;107459;1241;70769;-71
2023/09/28 19:37:38;;;;;;;15.60;8.70;;;;;;;16.45;100.00;101605.70;107606;1246;62770;-74
2023/09/28 19:40:09;;;;;;;13.90;8.50;;;;;;;16.40;100.00;101607.15;107525;1245;58987;-73
2023/09/28 19:42:40;;;;;;;14.20;7.90;;;;;;;16.38;100.00;101607.41;107523;1244;58981;-75
2023/09/28 19:45:11;;;;;;;13.80;8.80;;;;;;;16.27;100.00;101609.63;107429;1252;62099;-73
2023/09/28 19:47:40;;;;;;;16.70;8.40;;;;;;;16.16;100.00;101612.23;107483;1245;60674;-73
2023/09/28 19:50:10;;;;;;;19.80;8.00;;;;;;;16.11;100.00;101615.48;107369;1248;68460;-76
2023/09/28 19:52:38;;;;;;;16.80;7.40;;;;;;;16.07;100.00;101616.37;107512;1243;64938;-74
2023/09/28 19:55:10;;;;;;;24.60;8.50;;;;;;;16.04;100.00;101612.05;107514;1244;59019;-73
2023/09/28 19:57:38;;;;;;;17.70;8.10;;;;;;;15.94;100.00;101615.10;107522;1245;60939;-74
2023/09/28 20:00:10;;;;;;;12.10;7.30;;;;;;;15.88;100.00;101617.89;107379;1246;62577;-74
2023/09/28 20:02:40;;;;;;;15.70;7.40;;;;;;;15.78;100.00;101614.08;107345;1246;61439;-73
2023/09/28 20:05:10;;;;;;;16.00;7.90;;;;;;;15.73;100.00;101610.33;107465;1252;59893;-73
2023/09/28 20:07:40;;;;;;;16.50;7.90;;;;;;;15.67;100.00;101613.42;107378;1244;63470;-73
2023/09/28 20:10:10;;;;;;;16.40;8.00;;;;;;;15.60;100.00;101613.07;107334;1248;60742;-74
2023/09/28 20:12:41;;;;;;;13.20;7.50;;;;;;;15.57;100.00;101611.84;107477;1244;60979;-75
2023/09/28 20:15:10;;;;;;;13.80;7.70;;;;;;;15.50;100.00;101609.29;107412;1245;62553;-72
2023/09/28 20:17:40;;;;;;;16.60;9.00;;;;;;;15.39;100.00;101613.13;107571;1245;62933;-73
2023/09/28 20:20:10;;;;;;;15.90;7.70;;;;;;;15.28;100.00;101610.66;107456;1245;59839;-73
2023/09/28 20:22:39;;;;;;;15.40;8.00;;;;;;;15.20;100.00;101609.20;107443;1244;63401;-74
2023/09/28 20:25:24;;;;;;;16.60;8.20;;;;;;;15.10;100.00;101614.84;107586;1242;59469;-73
2023/09/28 20:27:53;;;;;;;14.90;7.70;;;;;;;15.03;100.00;101618.56;107476;1243;59054;-73
2023/09/28 20:30:22;;;;;;;11.90;7.20;;;;;;;14.96;100.00;101620.33;107476;1244;72453;-73
2023/09/28 20:32:52;;;;;;;17.20;8.10;;;;;;;14.89;100.00;101619.33;107482;1244;72411;-73
2023/09/28 20:35:22;;;;;;;16.60;8.30;;;;;;;14.79;100.00;101618.98;107499;1244;70886;-74
2023/09/28 20:37:52;;;;;;;13.60;7.20;;;;;;;14.73;100.00;101627.71;107483;1245;63523;-73
2023/09/28 20:40:20;;;;;;;14.60;7.30;;;;;;;14.68;100.00;101628.61;107399;1245;60549;-74
2023/09/28 20:42:49;;;;;;;19.20;7.40;;;;;;;14.58;100.00;101631.11;107462;1245;58534;-73
2023/09/28 20:45:18;;;;;;;15.30;7.40;;;;;;;14.47;100.00;101631.33;107583;1244;62163;-73
2023/09/28 20:47:47;;;;;;;13.30;7.60;;;;;;;14.46;100.00;101629.48;107454;1241;72624;-73
2023/09/28 20:50:16;;;;;;;13.90;7.60;;;;;;;14.39;100.00;101627.59;107419;1255;69895;-72
2023/09/28 20:52:45;;;;;;;12.00;7.70;;;;;;;14.32;100.00;101627.73;107511;1245;73998;-73
2023/09/28 20:55:13;;;;;;;13.90;8.00;;;;;;;14.28;100.00;101616.98;107388;1245;61873;-73
2023/09/28 20:57:42;;;;;;;16.20;8.00;;;;;;;14.31;100.00;101628.15;107582;1245;57391;-73
2023/09/28 21:00:12;;;;;;;16.00;7.90;;;;;;;14.29;100.00;101631.48;109765;1241;61913;-73
2023/09/28 21:02:41;;;;;;;10.30;7.50;;;;;;;14.22;100.00;101630.42;109663;1241;70960;-74
2023/09/28 21:05:10;;;;;;;16.20;8.20;;;;;;;14.15;100.00;101630.17;109726;1243;70929;-73
2023/09/28 21:07:39;;;;;;;15.80;7.50;;;;;;;14.06;100.00;101629.67;109753;1243;73545;-73
2023/09/28 21:10:13;;;;;;;14.50;8.10;;;;;;;13.96;100.00;101628.08;109818;1241;57087;-73
2023/09/28 21:12:42;;;;;;;18.00;8.10;;;;;;;13.88;100.00;101627.80;109754;1243;57137;-72
2023/09/28 21:15:11;;;;;;;14.00;7.70;;;;;;;13.78;100.00;101630.45;109737;1242;73190;-72
2023/09/28 21:17:40;;;;;;;11.90;7.50;;;;;;;13.69;100.00;101628.32;109742;1241;72251;-73
2023/09/28 21:20:11;;;;;;;14.40;8.00;;;;;;;13.67;100.00;101627.19;109701;1244;70659;-73
2023/09/28 21:22:40;;;;;;;13.30;7.90;;;;;;;13.62;100.00;101628.77;109608;1241;64302;-74
2023/09/28 21:25:09;;;;;;;12.90;7.90;;;;;;;13.59;100.00;101632.54;109702;1242;57162;-73
2023/09/28 21:27:38;;;;;;;16.70;7.80;;;;;;;13.53;100.00;101633.77;109619;1244;57112;-72
2023/09/28 21:30:08;;;;;;;17.10;7.80;;;;;;;13.45;100.00;101635.02;109690;1244;61907;-73
2023/09/28 21:32:37;;;;;;;16.30;8.30;;;;;;;13.39;100.00;101633.73;109657;1242;72224;-73
2023/09/28 21:35:07;;;;;;;15.00;8.60;;;;;;;13.29;100.00;101630.53;109603;1244;59730;-74
2023/09/28 21:37:36;;;;;;;13.00;7.60;;;;;;;13.20;100.00;101633.39;109680;1243;73791;-73
2023/09/28 21:40:05;;;;;;;14.00;8.20;;;;;;;13.15;100.00;101631.63;109462;1243;61783;-73
2023/09/28 21:42:34;;;;;;;14.70;7.70;;;;;;;13.18;100.00;101631.83;109635;1244;57677;-78
2023/09/28 21:45:07;;;;;;;15.40;8.00;;;;;;;13.25;100.00;101634.52;109690;1244;61205;-79
2023/09/28 21:47:36;;;;;;;12.90;8.30;;;;;;;13.35;100.00;101632.25;109578;1243;71286;-82
2023/09/28 21:50:06;;;;;;;12.50;8.10;;;;;;;13.34;100.00;101634.59;109701;1244;59571;-78
2023/09/28 21:52:37;;;;;;;13.60;7.80;;;;;;;13.45;100.00;101641.13;109692;1242;64799;-79
2023/09/28 21:55:07;;;;;;;12.80;8.10;;;;;;;13.44;100.00;101637.70;109650;1244;57687;-77
2023/09/28 21:57:36;;;;;;;15.80;8.30;;;;;;;13.37;100.00;101639.05;109531;1242;60989;-78
2023/09/28 22:00:42;;;;;;;17.30;8.70;;;;;;;13.36;100.00;101640.08;109562;1242;73010;-78
2023/09/28 22:03:11;;;;;;;17.40;8.50;;;;;;;13.35;100.00;101640.63;109626;1242;72455;-78
2023/09/28 22:05:40;;;;;;;13.90;8.50;;;;;;;13.37;100.00;101642.60;109654;1243;70134;-77
2023/09/28 22:08:09;;;;;;;15.70;8.40;;;;;;;13.31;100.00;101641.09;109544;1245;63421;-77
2023/09/28 22:10:38;;;;;;;15.70;8.40;;;;;;;13.25;100.00;101641.83;109519;1245;61973;-77
2023/09/28 22:13:06;;;;;;;13.70;8.60;;;;;;;13.27;100.00;101647.33;109549;1245;60999;-78
2023/09/28 22:15:35;;;;;;;17.00;8.30;;;;;;;13.23;100.00;101648.07;109641;1244;62749;-78
2023/09/28 22:18:05;;;;;;;15.20;8.60;;;;;;;13.12;100.00;101641.46;109638;1243;70855;-77
2023/09/28 22:20:34;;;;;;;16.30;8.80;;;;;;;13.01;100.00;101640.49;109629;1242;70604;-77
2023/09/28 22:23:03;;;;;;;15.70;8.60;;;;;;;12.96;100.00;101639.79;109604;1243;73850;-77
2023/09/28 22:25:32;;;;;;;19.30;9.20;;;;;;;12.92;100.00;101637.94;109388;1245;63063;-77
2023/09/28 22:28:02;;;;;;;18.70;9.00;;;;;;;12.85;100.00;101640.35;109493;1245;60659;-77
2023/09/28 22:30:32;;;;;;;15.00;8.00;;;;;;;12.79;100.00;101638.48;109403;1245;62604;-77
2023/09/28 22:33:01;;;;;;;18.50;8.80;;;;;;;12.72;100.00;101640.68;109374;1243;71933;-77
2023/09/28 22:35:29;;;;;;;14.40;8.70;;;;;;;12.65;100.00;101637.31;109567;1243;69845;-77
2023/09/28 22:37:58;;;;;;;20.10;9.10;;;;;;;12.62;100.00;101637.52;109400;1243;73455;-77
2023/09/28 22:40:30;;;;;;;14.70;9.00;;;;;;;12.59;100.00;101635.77;109216;1247;63787;-77
2023/09/28 22:42:59;;;;;;;17.50;8.50;;;;;;;12.54;100.00;101634.59;109561;1244;57230;-77
2023/09/28 22:45:28;;;;;;;15.70;9.00;;;;;;;12.48;100.00;101640.56;109619;1244;62113;-77
2023/09/28 22:47:57;;;;;;;17.80;10.00;;;;;;;12.43;100.00;101640.67;109458;1245;61438;-76
2023/09/28 22:50:26;;;;;;;18.50;9.60;;;;;;;12.40;100.00;101641.23;109593;1244;69193;-76
2023/09/28 22:52:55;;;;;;;14.90;8.30;;;;;;;12.34;100.00;101640.07;109626;1243;73538;-77
2023/09/28 22:55:23;;;;;;;14.60;9.60;;;;;;;12.31;100.00;101640.59;109530;1245;63091;-77
2023/09/28 22:57:52;;;;;;;17.30;9.50;;;;;;;12.30;100.00;101640.66;109536;1243;57681;-77
2023/09/28 23:00:21;;;;;;;15.10;9.50;;;;;;;12.29;100.00;101641.39;109665;1243;61311;-76
2023/09/28 23:02:50;;;;;;;16.30;9.00;;;;;;;12.27;100.00;101644.92;109627;1243;71943;-77
2023/09/28 23:05:19;;;;;;;17.30;9.80;;;;;;;12.29;100.00;101640.19;109671;1244;70757;-77
2023/09/28 23:07:47;;;;;;;12.60;9.10;;;;;;;12.32;100.00;101645.09;109646;1243;72395;-77
2023/09/28 23:10:17;;;;;;;18.60;9.30;;;;;;;12.28;100.00;101642.35;109658;1243;57212;-77
2023/09/28 23:12:45;;;;;;;17.60;9.50;;;;;;;12.21;100.00;101643.50;109457;1244;60688;-77
2023/09/28 23:15:14;;;;;;;18.70;9.50;;;;;;;12.16;100.00;101642.59;109645;1244;63264;-77
2023/09/28 23:17:44;;;;;;;16.00;9.40;;;;;;;12.13;100.00;101643.82;109514;1244;60864;-77
2023/09/28 23:20:15;;;;;;;17.30;10.20;;;;;;;12.10;100.00;101645.11;109406;1243;69477;-77
2023/09/28 23:22:44;;;;;;;16.60;10.20;;;;;;;12.06;100.00;101647.09;109619;1242;74217;-77
2023/09/28 23:25:13;;;;;;;18.50;9.40;;;;;;;12.06;100.00;101648.67;109637;1244;57468;-76
2023/09/28 23:27:45;;;;;;;16.10;9.80;;;;;;;12.11;100.00;101651.67;109622;1244;60979;-77
2023/09/28 23:30:18;;;;;;;17.50;9.80;;;;;;;12.13;100.00;101653.11;109464;1244;74031;-77
2023/09/28 23:32:50;;;;;;;15.20;9.40;;;;;;;12.11;100.00;101656.39;109461;1242;71414;-77
2023/09/28 23:35:24;;;;;;;15.40;10.50;;;;;;;12.06;100.00;101660.89;109611;1244;70150;-77
2023/09/28 23:37:54;;;;;;;26.60;10.00;;;;;;;11.97;100.00;101657.10;109412;1243;73888;-77
2023/09/28 23:40:25;;;;;;;16.40;9.10;;;;;;;11.93;100.00;101653.69;109646;1244;57817;-77
2023/09/28 23:42:54;;;;;;;17.10;9.50;;;;;;;11.97;100.00;101654.13;109625;1243;60927;-76
2023/09/28 23:45:28;;;;;;;20.40;10.00;;;;;;;11.90;100.00;101650.19;109646;1242;63441;-77
2023/09/28 23:47:57;;;;;;;15.70;10.20;;;;;;;11.87;100.00;101652.30;109498;1244;61446;-76
2023/09/28 23:50:27;;;;;;;15.80;9.20;;;;;;;11.84;100.00;101651.28;109602;1242;61036;-77
2023/09/28 23:52:55;;;;;;;14.30;9.00;;;;;;;11.79;100.00;101657.69;109483;1244;73006;-77
2023/09/28 23:55:24;;;;;;;19.00;9.80;;;;;;;11.75;100.00;101653.92;109604;1244;57279;-77
2023/09/28 23:57:54;;;;;;;17.40;9.30;;;;;;;11.69;100.00;101654.30;109482;1244;57644;-77
